Terminal Aerodrome Forecast
Issued by NWS Sioux Falls, SD

Home | Current Version | Previous Version | Text Only | Print | Product List | Glossary On
Versions: 1 2 3 4 5 6 7 8 9 10 11 12 13 14 15 16 17 18 19 20 21 22 23 24 25 26 27 28 29
864
FTUS43 KFSD 210532
TAFSUX
TAF
KSUX 210532Z 2106/2206 13007KT P6SM -SHRA OVC040
      TEMPO 2106/2108 4SM TSRA BR OVC030CB
     FM210800 09005KT 6SM BR BKN035
      TEMPO 2108/2109 5SM -TSRA OVC040CB
     FM211400 15006KT P6SM SCT080
     FM211900 19009KT P6SM VCTS BKN080CB
     FM212200 36007KT P6SM SHRA VCTS BKN060CB
     FM220300 35005KT P6SM BKN060=

USA.gov is the U.S. government's official web portal to all federal, state and local government web resources and services.